createdAt,value
2022-12-31T00:03:01.497Z,125.93
2022-12-31T00:09:06.852Z,139.03
2022-12-31T00:15:09.283Z,103.60
2022-12-31T00:21:12.745Z,105.27
2022-12-31T00:27:15.284Z,134.70
2022-12-31T00:33:18.931Z,91.20
2022-12-31T00:39:21.150Z,101.47
2022-12-31T00:45:24.609Z,119.70
2022-12-31T00:51:31.082Z,104.83
2022-12-31T00:57:33.519Z,95.27
2022-12-31T01:03:36.029Z,97.37
2022-12-31T01:09:38.459Z,100.80
2022-12-31T01:15:40.995Z,109.60
2022-12-31T01:21:44.398Z,86.03
2022-12-31T01:27:46.846Z,88.57
2022-12-31T01:33:49.305Z,94.47
2022-12-31T01:39:51.819Z,91.70
2022-12-31T01:45:55.370Z,76.50
2022-12-31T01:52:03.783Z,81.80
2022-12-31T01:58:12.275Z,97.00
2022-12-31T02:04:16.096Z,98.13
2022-12-31T02:10:18.239Z,81.27
2022-12-31T02:16:32.758Z,68.83
2022-12-31T02:23:03.420Z,69.93
2022-12-31T02:29:29.844Z,95.93
2022-12-31T02:35:49.357Z,71.87
2022-12-31T02:41:52.086Z,76.23
2022-12-31T02:48:06.447Z,87.43
2022-12-31T02:54:38.011Z,86.10
2022-12-31T03:01:05.724Z,80.13
2022-12-31T03:07:23.129Z,117.23
2022-12-31T03:13:25.559Z,85.13
2022-12-31T03:19:46.088Z,58.83
2022-12-31T03:25:48.569Z,60.20
2022-12-31T03:31:51.074Z,71.07
2022-12-31T03:37:54.472Z,81.73
2022-12-31T03:43:56.991Z,79.53
2022-12-31T03:49:59.443Z,69.47
2022-12-31T03:56:01.873Z,64.53
2022-12-31T04:02:04.488Z,72.83
2022-12-31T04:08:07.448Z,63.87
2022-12-31T04:14:10.307Z,75.87
2022-12-31T04:20:12.761Z,76.07
2022-12-31T04:26:14.737Z,76.43
2022-12-31T04:32:16.703Z,96.33
2022-12-31T04:38:18.563Z,70.93
2022-12-31T04:44:20.799Z,74.07
2022-12-31T04:50:22.566Z,83.07
2022-12-31T04:56:25.576Z,72.17
2022-12-31T05:02:28.129Z,73.20
2022-12-31T05:08:31.495Z,67.87
2022-12-31T05:14:33.953Z,79.80
2022-12-31T05:20:36.393Z,66.53
2022-12-31T05:26:38.178Z,71.13
2022-12-31T05:32:40.347Z,90.87
2022-12-31T05:38:42.790Z,76.23
2022-12-31T05:44:45.239Z,72.87
2022-12-31T05:50:47.730Z,56.13
2022-12-31T05:56:49.788Z,90.20
2022-12-31T06:02:51.736Z,85.87
2022-12-31T06:08:53.601Z,77.47
2022-12-31T06:14:57.648Z,69.23
2022-12-31T06:21:00.053Z,54.73
2022-12-31T06:27:02.507Z,60.30
2022-12-31T06:33:07.283Z,60.33
2022-12-31T06:39:09.469Z,87.03
2022-12-31T06:45:11.955Z,67.83
2022-12-31T06:51:20.414Z,91.57
2022-12-31T06:57:23.912Z,90.27
2022-12-31T07:03:57.529Z,100.33
2022-12-31T07:10:41.135Z,103.30
2022-12-31T07:17:09.695Z,95.27
2022-12-31T07:23:12.173Z,110.27
2022-12-31T07:29:28.666Z,105.70
2022-12-31T07:35:55.241Z,101.03
2022-12-31T07:42:53.952Z,111.07
2022-12-31T07:48:56.483Z,99.07
2022-12-31T07:54:58.863Z,112.50
2022-12-31T08:01:02.483Z,97.37
2022-12-31T08:07:17.850Z,111.20
2022-12-31T08:13:19.910Z,116.40
2022-12-31T08:19:28.811Z,99.97
2022-12-31T08:26:09.214Z,107.03
2022-12-31T08:32:23.943Z,117.53
2022-12-31T08:38:50.481Z,92.90
2022-12-31T08:45:11.027Z,95.60
2022-12-31T08:51:21.536Z,95.70
2022-12-31T08:57:40.038Z,81.00
2022-12-31T09:04:23.687Z,117.27
2022-12-31T09:10:34.912Z,70.10
2022-12-31T09:16:44.684Z,79.87
2022-12-31T09:22:47.118Z,73.13
2022-12-31T09:28:57.589Z,77.13
2022-12-31T09:35:35.210Z,70.07
2022-12-31T09:42:25.863Z,78.20
2022-12-31T09:49:27.564Z,78.63
2022-12-31T09:55:37.074Z,84.10
2022-12-31T10:01:56.704Z,64.60
2022-12-31T10:07:59.055Z,72.83
2022-12-31T10:14:32.664Z,81.30
2022-12-31T10:21:05.222Z,81.30
2022-12-31T10:27:33.839Z,85.63
2022-12-31T10:33:48.348Z,78.17
2022-12-31T10:40:18.936Z,79.57
2022-12-31T10:46:48.531Z,63.80
2022-12-31T10:53:16.080Z,64.60
2022-12-31T10:59:44.985Z,64.03
2022-12-31T11:05:47.113Z,45.87
2022-12-31T11:12:10.650Z,42.83
2022-12-31T11:18:23.184Z,50.17
2022-12-31T11:24:26.622Z,38.83
2022-12-31T11:30:39.197Z,43.70
2022-12-31T11:36:52.664Z,28.33
2022-12-31T11:43:12.255Z,17.77
2022-12-31T11:49:43.801Z,15.03
2022-12-31T11:56:02.742Z,9.83
2022-12-31T12:02:18.438Z,11.90
2022-12-31T12:08:21.359Z,12.23
2022-12-31T12:14:41.872Z,12.83
2022-12-31T12:20:47.318Z,10.63
2022-12-31T12:26:52.813Z,10.43
2022-12-31T12:33:01.938Z,10.23
2022-12-31T12:39:07.409Z,16.40
2022-12-31T12:45:18.842Z,14.03
2022-12-31T12:51:26.930Z,14.37
2022-12-31T12:57:42.396Z,11.10
2022-12-31T13:04:32.926Z,10.93
2022-12-31T13:10:29.388Z,14.57
2022-12-31T13:16:37.890Z,26.77
2022-12-31T13:22:50.367Z,33.70
2022-12-31T13:28:53.795Z,52.63
2022-12-31T13:35:03.317Z,24.60
2022-12-31T13:41:28.850Z,16.27
2022-12-31T13:47:39.572Z,19.37
2022-12-31T13:54:04.928Z,17.03
2022-12-31T14:00:21.391Z,18.80
2022-12-31T14:06:35.930Z,18.10
2022-12-31T14:13:00.519Z,18.90
2022-12-31T14:19:32.478Z,20.83
2022-12-31T14:25:47.540Z,27.07
2022-12-31T14:31:50.085Z,39.73
2022-12-31T14:38:06.523Z,36.17
2022-12-31T14:44:37.119Z,23.57
2022-12-31T14:50:39.551Z,31.20
2022-12-31T14:56:46.075Z,30.50
2022-12-31T15:02:53.415Z,33.93
2022-12-31T15:09:31.138Z,93.37
2022-12-31T15:15:55.694Z,77.70
2022-12-31T15:22:34.327Z,75.43
2022-12-31T15:28:39.807Z,85.73
2022-12-31T15:34:44.219Z,23.87
2022-12-31T15:40:53.598Z,17.57
2022-12-31T15:47:08.276Z,20.37
2022-12-31T15:53:29.983Z,19.83
2022-12-31T15:59:34.449Z,15.63
2022-12-31T16:05:43.934Z,13.97
2022-12-31T16:11:50.305Z,14.60
2022-12-31T16:18:08.810Z,16.17
2022-12-31T16:24:31.353Z,12.37
2022-12-31T16:30:36.804Z,15.50
2022-12-31T16:36:39.259Z,12.23
2022-12-31T16:42:44.418Z,9.80
2022-12-31T16:49:23.373Z,10.77
2022-12-31T16:55:29.844Z,12.30
2022-12-31T17:01:35.430Z,9.60
2022-12-31T17:07:41.746Z,27.73
2022-12-31T17:13:46.215Z,20.30
2022-12-31T17:19:50.736Z,17.97
2022-12-31T17:26:12.231Z,18.47
2022-12-31T17:32:37.763Z,21.50
2022-12-31T17:38:40.227Z,16.13
2022-12-31T17:44:46.686Z,13.57
2022-12-31T17:50:53.146Z,11.97
2022-12-31T17:56:55.632Z,14.40
2022-12-31T18:02:58.143Z,15.97
2022-12-31T18:08:59.931Z,9.53
2022-12-31T18:15:01.994Z,9.60
2022-12-31T18:21:08.508Z,11.50
2022-12-31T18:27:19.004Z,19.93
2022-12-31T18:33:25.454Z,16.67
2022-12-31T18:39:27.990Z,17.63
2022-12-31T18:45:30.505Z,21.57
2022-12-31T18:51:33.914Z,17.47
2022-12-31T18:57:36.371Z,26.23
2022-12-31T19:03:38.842Z,32.13
2022-12-31T19:09:46.018Z,29.97
2022-12-31T19:15:51.808Z,23.80
2022-12-31T19:21:54.256Z,24.93
2022-12-31T19:27:56.779Z,23.63
2022-12-31T19:33:59.150Z,22.37
2022-12-31T19:40:03.689Z,22.27
2022-12-31T19:46:06.115Z,20.17
2022-12-31T19:52:08.579Z,25.30
2022-12-31T19:58:20.091Z,24.83
2022-12-31T20:04:22.581Z,22.87
2022-12-31T20:10:25.042Z,21.10
2022-12-31T20:16:27.559Z,22.00
2022-12-31T20:22:29.951Z,18.00
2022-12-31T20:28:32.485Z,24.43
2022-12-31T20:34:34.942Z,21.17
2022-12-31T20:40:42.893Z,122.30
2022-12-31T20:46:48.942Z,45.33
2022-12-31T20:52:51.408Z,33.13
2022-12-31T20:58:53.902Z,26.60
2022-12-31T21:04:56.432Z,36.60
2022-12-31T21:10:59.838Z,32.00
2022-12-31T21:17:02.276Z,44.10
2022-12-31T21:23:04.750Z,45.10
2022-12-31T21:29:07.228Z,30.00
2022-12-31T21:41:51.387Z,34.47
2022-12-31T21:48:11.919Z,31.97
2022-12-31T21:54:34.552Z,35.30
2022-12-31T22:00:56.087Z,42.60
2022-12-31T22:06:58.519Z,36.43
2022-12-31T22:13:01.004Z,142.00
2022-12-31T22:19:03.466Z,142.47
2022-12-31T22:25:06.924Z,84.27
2022-12-31T22:31:22.485Z,69.80
2022-12-31T22:37:55.497Z,116.10
2022-12-31T22:43:55.991Z,75.30
2022-12-31T22:50:02.946Z,98.23
2022-12-31T22:56:10.444Z,77.23
2022-12-31T23:02:12.892Z,73.70
2022-12-31T23:08:22.236Z,55.27
2022-12-31T23:14:44.160Z,38.60
2022-12-31T23:21:04.592Z,54.83
2022-12-31T23:27:07.973Z,44.73
2022-12-31T23:33:20.517Z,59.03
2022-12-31T23:39:22.961Z,67.77
2022-12-31T23:45:31.111Z,57.63
2022-12-31T23:51:36.904Z,50.13
2022-12-31T23:57:39.371Z,38.17
